createdAt,value
2018-07-28T00:00:31.738Z,100801.78
2018-07-28T00:05:24.378Z,100798.33
2018-07-28T00:10:16.979Z,100797.38
2018-07-28T00:15:10.963Z,100790.31
2018-07-28T00:20:04.801Z,100792.23
2018-07-28T00:24:57.441Z,100784.09
2018-07-28T00:29:49.992Z,100783.86
2018-07-28T00:34:42.581Z,100781.43
2018-07-28T00:39:35.219Z,100781.27
2018-07-28T00:44:27.764Z,100778.47
2018-07-28T00:49:20.334Z,100774.98
2018-07-28T00:54:12.962Z,100773.93
2018-07-28T00:59:05.571Z,100770.56
2018-07-28T01:03:58.246Z,100768.30
2018-07-28T01:08:51.019Z,100764.68
2018-07-28T01:13:43.626Z,100764.27
2018-07-28T01:18:36.318Z,100759.04
2018-07-28T01:23:28.944Z,100751.53
2018-07-28T01:28:21.640Z,100746.34
2018-07-28T01:33:14.210Z,100745.85
2018-07-28T01:38:06.826Z,100739.48
2018-07-28T01:42:59.452Z,100740.25
2018-07-28T01:47:52.043Z,100727.61
2018-07-28T01:52:44.598Z,100724.96
2018-07-28T01:57:37.231Z,100717.83
2018-07-28T02:02:29.760Z,100713.29
2018-07-28T02:07:22.329Z,100713.72
2018-07-28T02:12:14.845Z,100717.77
2018-07-28T02:17:07.443Z,100711.95
2018-07-28T02:22:01.387Z,100704.91
2018-07-28T02:26:53.942Z,100704.67
2018-07-28T02:31:46.497Z,100696.26
2018-07-28T02:36:39.159Z,100685.67
2018-07-28T02:41:31.791Z,100678.44
2018-07-28T02:46:24.503Z,100670.28
2018-07-28T02:51:17.058Z,100675.94
2018-07-28T02:56:09.638Z,100673.09
2018-07-28T03:01:02.274Z,100663.61
2018-07-28T03:05:55.197Z,100668.30
2018-07-28T03:10:47.808Z,100671.37
2018-07-28T03:15:40.460Z,100672.50
2018-07-28T03:20:33.143Z,100667.10
2018-07-28T03:25:25.680Z,100670.81
2018-07-28T03:30:18.334Z,100668.56
2018-07-28T03:35:10.957Z,100663.52
2018-07-28T03:40:03.887Z,100668.70
2018-07-28T03:44:56.485Z,100664.16
2018-07-28T03:49:49.079Z,100656.88
2018-07-28T03:54:41.695Z,100666.27
2018-07-28T03:59:34.296Z,100658.16
2018-07-28T04:04:26.951Z,100659.20
2018-07-28T04:09:19.543Z,100654.83
2018-07-28T04:14:12.145Z,100658.45
2018-07-28T04:19:05.136Z,100650.45
2018-07-28T04:23:57.755Z,100649.64
2018-07-28T04:28:50.350Z,100651.20
2018-07-28T04:33:42.930Z,100647.08
2018-07-28T04:38:35.535Z,100642.77
2018-07-28T04:43:28.152Z,100652.81
2018-07-28T04:48:20.686Z,100651.23
2018-07-28T04:53:13.257Z,100649.50
2018-07-28T04:58:06.141Z,100645.20
2018-07-28T05:02:58.829Z,100634.13
2018-07-28T05:07:51.486Z,100633.50
2018-07-28T05:12:44.075Z,100635.58
2018-07-28T05:17:36.674Z,100634.38
2018-07-28T05:22:29.342Z,100630.67
2018-07-28T05:27:21.868Z,100634.80
2018-07-28T05:32:14.407Z,100632.92
2018-07-28T05:37:07.110Z,100621.91
2018-07-28T05:41:59.634Z,100623.52
2018-07-28T05:46:52.255Z,100624.91
2018-07-28T05:51:44.915Z,100619.86
2018-07-28T05:56:37.462Z,100621.28
2018-07-28T06:01:30.135Z,100614.75
2018-07-28T06:06:22.815Z,100614.80
2018-07-28T06:11:15.460Z,100607.56
2018-07-28T06:16:08.069Z,100614.77
2018-07-28T06:21:00.629Z,100618.38
2018-07-28T06:25:53.505Z,100619.27
2018-07-28T06:30:46.273Z,100621.20
2018-07-28T06:35:38.835Z,100623.67
2018-07-28T06:40:31.519Z,100618.00
2018-07-28T06:45:24.244Z,100610.87
2018-07-28T06:50:16.888Z,100610.22
2018-07-28T06:55:09.524Z,100604.88
2018-07-28T07:00:02.309Z,100598.28
2018-07-28T07:04:55.392Z,100598.57
2018-07-28T07:09:47.977Z,100606.42
2018-07-28T07:14:40.747Z,100594.47
2018-07-28T07:19:33.451Z,100584.00
2018-07-28T07:24:27.037Z,100587.39
2018-07-28T07:29:19.570Z,100582.39
2018-07-28T07:34:12.238Z,100587.27
2018-07-28T07:39:06.639Z,100580.70
2018-07-28T07:43:59.216Z,100586.99
2018-07-28T07:48:51.936Z,100588.39
2018-07-28T07:53:44.658Z,100582.64
2018-07-28T07:58:37.214Z,100577.34
2018-07-28T08:03:29.822Z,100568.22
2018-07-28T08:08:22.548Z,100578.90
2018-07-28T08:13:15.139Z,100576.05
2018-07-28T08:18:07.749Z,100573.09
2018-07-28T08:23:00.310Z,100581.13
2018-07-28T08:27:55.566Z,100570.95
2018-07-28T08:32:48.228Z,100559.30
2018-07-28T08:37:41.015Z,100557.38
2018-07-28T08:42:33.633Z,100559.21
2018-07-28T08:47:26.254Z,100555.03
2018-07-28T08:52:18.796Z,100553.95
2018-07-28T08:57:11.557Z,100558.25
2018-07-28T09:02:04.150Z,100553.38
2018-07-28T09:06:56.825Z,100555.41
2018-07-28T09:11:49.467Z,100543.95
2018-07-28T09:16:42.361Z,100553.00
2018-07-28T09:21:34.925Z,100548.47
2018-07-28T09:26:27.599Z,100549.91
2018-07-28T09:31:20.173Z,100546.95
2018-07-28T09:36:12.773Z,100548.56
2018-07-28T09:41:05.343Z,100538.91
2018-07-28T09:45:57.991Z,100538.09
2018-07-28T09:50:50.607Z,100533.72
2018-07-28T09:55:43.272Z,100530.68
2018-07-28T10:00:41.583Z,100526.95
2018-07-28T10:05:34.177Z,100521.90
2018-07-28T10:10:26.706Z,100509.09
2018-07-28T10:15:19.422Z,100498.55
2018-07-28T10:20:12.003Z,100503.58
2018-07-28T10:25:04.683Z,100496.23
2018-07-28T10:29:57.243Z,100486.75
2018-07-28T10:34:50.029Z,100484.50
2018-07-28T10:39:42.530Z,100481.00
2018-07-28T10:44:35.230Z,100491.47
2018-07-28T10:49:27.835Z,100496.02
2018-07-28T10:54:20.386Z,100484.45
2018-07-28T10:59:13.114Z,100485.09
2018-07-28T11:04:05.980Z,100476.72
2018-07-28T11:08:58.591Z,100470.93
2018-07-28T11:13:51.687Z,100480.20
2018-07-28T11:18:44.333Z,100462.69
2018-07-28T11:23:54.447Z,100441.81
2018-07-28T11:28:47.010Z,100450.48
2018-07-28T11:34:55.493Z,100452.78
2018-07-28T11:40:05.830Z,100434.90
2018-07-28T11:45:10.556Z,100439.97
2018-07-28T11:50:03.233Z,100431.95
2018-07-28T11:54:55.810Z,100429.33
2018-07-28T11:59:48.583Z,100432.16
2018-07-28T12:04:41.167Z,100419.53
2018-07-28T12:09:33.766Z,100412.14
2018-07-28T12:14:26.359Z,100406.33
2018-07-28T12:19:19.005Z,100399.06
2018-07-28T12:24:11.705Z,100399.59
2018-07-28T12:29:04.295Z,100384.48
2018-07-28T12:33:56.980Z,100378.78
2018-07-28T12:38:49.533Z,100383.20
2018-07-28T12:43:42.085Z,100383.30
2018-07-28T12:48:34.658Z,100380.15
2018-07-28T12:53:27.272Z,100385.27
2018-07-28T12:58:19.885Z,100380.03
2018-07-28T13:03:12.514Z,100376.00
2018-07-28T13:08:05.517Z,100374.81
2018-07-28T13:12:58.035Z,100367.09
2018-07-28T13:17:50.688Z,100358.58
2018-07-28T13:22:44.101Z,100345.52
2018-07-28T13:27:36.675Z,100350.53
2018-07-28T13:32:29.191Z,100339.36
2018-07-28T13:37:21.721Z,100344.17
2018-07-28T13:42:14.402Z,100338.23
2018-07-28T13:47:07.302Z,100329.04
2018-07-28T13:51:59.890Z,100314.09
2018-07-28T13:56:52.445Z,100330.85
2018-07-28T14:01:45.082Z,100330.20
2018-07-28T14:06:37.723Z,100326.99
2018-07-28T14:11:30.245Z,100331.97
2018-07-28T14:16:22.828Z,100323.56
2018-07-28T14:21:15.426Z,100311.23
2018-07-28T14:26:07.998Z,100303.84
2018-07-28T14:31:00.583Z,100309.44
2018-07-28T14:35:53.253Z,100301.46
2018-07-28T14:40:45.861Z,100294.48
2018-07-28T14:45:38.496Z,100279.56
2018-07-28T14:50:31.017Z,100281.36
2018-07-28T14:55:23.634Z,100283.94
2018-07-28T15:00:16.225Z,100279.73
2018-07-28T15:05:08.802Z,100272.95
2018-07-28T15:10:01.426Z,100271.56
2018-07-28T15:14:53.994Z,100264.16
2018-07-28T15:19:46.559Z,100269.97
2018-07-28T15:24:39.193Z,100277.73
2018-07-28T15:29:31.765Z,100276.30
2018-07-28T15:34:24.393Z,100287.05
2018-07-28T15:39:16.996Z,100287.48
2018-07-28T15:44:09.604Z,100286.30
2018-07-28T15:49:02.268Z,100297.45
2018-07-28T15:53:54.830Z,100285.46
2018-07-28T15:58:47.415Z,100294.82
2018-07-28T16:03:39.989Z,100289.65
2018-07-28T16:08:32.703Z,100282.88
2018-07-28T16:13:25.321Z,100291.67
2018-07-28T16:18:17.890Z,100290.06
2018-07-28T16:23:10.493Z,100286.28
2018-07-28T16:28:03.023Z,100288.86
2018-07-28T16:32:55.568Z,100277.27
2018-07-28T16:37:48.118Z,100272.67
2018-07-28T16:42:40.753Z,100267.08
2018-07-28T16:47:33.310Z,100273.83
2018-07-28T16:52:25.853Z,100270.44
2018-07-28T16:57:18.444Z,100267.03
2018-07-28T17:02:11.135Z,100274.81
2018-07-28T17:07:03.797Z,100268.82
2018-07-28T17:11:56.420Z,100281.78
2018-07-28T17:16:48.961Z,100282.36
2018-07-28T17:21:41.529Z,100280.91
2018-07-28T17:26:34.152Z,100349.63
2018-07-28T17:31:26.728Z,100358.53
2018-07-28T17:36:19.327Z,100359.19
2018-07-28T17:41:11.958Z,100377.16
2018-07-28T17:46:04.687Z,100401.47
2018-07-28T17:50:57.295Z,100448.50
2018-07-28T17:55:49.954Z,100475.02
2018-07-28T18:00:42.535Z,100527.41
2018-07-28T18:05:35.125Z,100539.40
2018-07-28T18:10:27.684Z,100529.81
2018-07-28T18:15:20.216Z,100512.54
2018-07-28T18:20:12.744Z,100500.78
2018-07-28T18:25:05.290Z,100480.70
2018-07-28T18:29:57.850Z,100484.63
2018-07-28T18:34:50.983Z,100486.28
2018-07-28T18:39:43.588Z,100468.45
2018-07-28T18:44:36.318Z,100443.54
2018-07-28T18:49:28.986Z,100430.56
2018-07-28T18:54:21.564Z,100423.32
2018-07-28T18:59:14.118Z,100421.64
2018-07-28T19:04:06.765Z,100421.88
2018-07-28T19:09:05.084Z,100435.17
2018-07-28T19:14:03.373Z,100443.73
2018-07-28T19:19:01.648Z,100467.58
2018-07-28T19:24:01.555Z,100496.41
2018-07-28T19:28:59.968Z,100520.70
2018-07-28T19:33:52.605Z,100527.48
2018-07-28T19:38:45.318Z,100521.14
2018-07-28T19:43:37.890Z,100530.02
2018-07-28T19:48:30.549Z,100533.48
2018-07-28T19:53:23.124Z,100534.17
2018-07-28T19:58:15.798Z,100565.92
2018-07-28T20:03:08.412Z,100594.19
2018-07-28T20:08:00.973Z,100633.19
2018-07-28T20:12:53.573Z,100646.59
2018-07-28T20:17:46.242Z,100658.98
2018-07-28T20:22:38.821Z,100666.75
2018-07-28T20:27:31.416Z,100672.12
2018-07-28T20:32:24.049Z,100674.70
2018-07-28T20:37:16.619Z,100689.13
2018-07-28T20:42:09.283Z,100705.02
2018-07-28T20:47:01.872Z,100697.31
2018-07-28T20:51:54.472Z,100695.57
2018-07-28T20:56:47.065Z,100696.27
2018-07-28T21:01:39.729Z,100703.10
2018-07-28T21:06:32.298Z,100696.62
2018-07-28T21:11:24.834Z,100688.05
2018-07-28T21:16:17.526Z,100696.11
2018-07-28T21:21:10.085Z,100706.82
2018-07-28T21:26:02.631Z,100695.57
2018-07-28T21:30:55.196Z,100698.95
2018-07-28T21:35:47.774Z,100712.02
2018-07-28T21:40:40.394Z,100732.23
2018-07-28T21:45:32.943Z,100736.70
2018-07-28T21:50:25.511Z,100741.97
2018-07-28T21:55:18.067Z,100750.31
2018-07-28T22:00:10.921Z,100745.21
2018-07-28T22:05:03.639Z,100744.92
2018-07-28T22:09:56.170Z,100742.58
2018-07-28T22:14:48.923Z,100749.15
2018-07-28T22:19:41.445Z,100747.48
2018-07-28T22:24:34.001Z,100739.00
2018-07-28T22:29:26.584Z,100745.09
2018-07-28T22:34:19.193Z,100750.52
2018-07-28T22:39:11.981Z,100752.91
2018-07-28T22:44:04.607Z,100751.04
2018-07-28T22:48:57.195Z,100756.91
2018-07-28T22:53:49.778Z,100770.67
2018-07-28T22:58:42.330Z,100792.73
2018-07-28T23:03:34.907Z,100807.06
2018-07-28T23:08:27.513Z,100807.88
2018-07-28T23:13:20.082Z,100827.31
2018-07-28T23:18:12.617Z,100834.93
2018-07-28T23:23:05.207Z,100851.58
2018-07-28T23:27:57.793Z,100866.78
2018-07-28T23:32:50.306Z,100867.74
2018-07-28T23:37:42.875Z,100884.75
2018-07-28T23:42:35.475Z,100888.94
2018-07-28T23:47:28.029Z,100891.94
2018-07-28T23:52:20.659Z,100894.30
2018-07-28T23:57:13.277Z,100896.30
